sensor_id;sensor_type;location;lat;lon;timestamp;pressure;altitude;pressure_sealevel;temperature;humidity
47726;BME280;33483;48.294;16.388;2023-05-16T00:00:42;99178.19;;;12.65;100.00
47726;BME280;33483;48.294;16.388;2023-05-16T00:03:23;99175.97;;;12.63;100.00
47726;BME280;33483;48.294;16.388;2023-05-16T00:05:51;99170.22;;;12.61;100.00
47726;BME280;33483;48.294;16.388;2023-05-16T00:08:18;99178.91;;;12.58;100.00
47726;BME280;33483;48.294;16.388;2023-05-16T00:10:46;99175.94;;;12.56;100.00
47726;BME280;33483;48.294;16.388;2023-05-16T00:13:13;99172.59;;;12.50;100.00
47726;BME280;33483;48.294;16.388;2023-05-16T00:15:40;99166.22;;;12.41;100.00
47726;BME280;33483;48.294;16.388;2023-05-16T00:18:09;99165.88;;;12.45;100.00
47726;BME280;33483;48.294;16.388;2023-05-16T00:20:40;99165.13;;;12.37;100.00
47726;BME280;33483;48.294;16.388;2023-05-16T00:23:07;99157.34;;;12.43;100.00
47726;BME280;33483;48.294;16.388;2023-05-16T00:25:35;99161.06;;;12.45;100.00
47726;BME280;33483;48.294;16.388;2023-05-16T00:28:04;99166.28;;;12.49;100.00
47726;BME280;33483;48.294;16.388;2023-05-16T00:30:34;99172.94;;;12.46;100.00
47726;BME280;33483;48.294;16.388;2023-05-16T00:33:00;99176.44;;;12.46;100.00
47726;BME280;33483;48.294;16.388;2023-05-16T00:35:28;99172.75;;;12.44;100.00
47726;BME280;33483;48.294;16.388;2023-05-16T00:37:55;99174.03;;;12.43;100.00
47726;BME280;33483;48.294;16.388;2023-05-16T00:40:23;99169.56;;;12.40;100.00
47726;BME280;33483;48.294;16.388;2023-05-16T00:42:51;99169.19;;;12.36;100.00
47726;BME280;33483;48.294;16.388;2023-05-16T00:45:18;99165.06;;;12.29;100.00
47726;BME280;33483;48.294;16.388;2023-05-16T00:47:47;99158.59;;;12.27;100.00
47726;BME280;33483;48.294;16.388;2023-05-16T00:50:15;99162.44;;;12.24;100.00
47726;BME280;33483;48.294;16.388;2023-05-16T00:52:42;99154.84;;;12.24;100.00
47726;BME280;33483;48.294;16.388;2023-05-16T00:55:09;99151.16;;;12.22;100.00
47726;BME280;33483;48.294;16.388;2023-05-16T00:57:37;99148.38;;;12.22;100.00
47726;BME280;33483;48.294;16.388;2023-05-16T01:00:05;99153.38;;;12.23;100.00
47726;BME280;33483;48.294;16.388;2023-05-16T01:02:34;99160.97;;;12.23;100.00
47726;BME280;33483;48.294;16.388;2023-05-16T01:05:03;99157.09;;;12.26;100.00
47726;BME280;33483;48.294;16.388;2023-05-16T01:07:34;99148.03;;;12.25;100.00
47726;BME280;33483;48.294;16.388;2023-05-16T01:10:05;99147.81;;;12.23;100.00
47726;BME280;33483;48.294;16.388;2023-05-16T01:12:56;99152.09;;;12.24;100.00
47726;BME280;33483;48.294;16.388;2023-05-16T01:15:25;99146.94;;;12.28;100.00
47726;BME280;33483;48.294;16.388;2023-05-16T01:20:27;99144.34;;;12.30;100.00
47726;BME280;33483;48.294;16.388;2023-05-16T01:25:56;99143.78;;;12.32;100.00
47726;BME280;33483;48.294;16.388;2023-05-16T01:28:23;99154.91;;;12.32;100.00
47726;BME280;33483;48.294;16.388;2023-05-16T01:30:52;99152.88;;;12.32;100.00
47726;BME280;33483;48.294;16.388;2023-05-16T01:33:19;99150.63;;;12.31;100.00
47726;BME280;33483;48.294;16.388;2023-05-16T01:35:50;99149.69;;;12.28;100.00
47726;BME280;33483;48.294;16.388;2023-05-16T01:38:24;99149.50;;;12.26;100.00
47726;BME280;33483;48.294;16.388;2023-05-16T01:46:13;99152.84;;;12.25;100.00
47726;BME280;33483;48.294;16.388;2023-05-16T01:49:04;99147.13;;;12.30;100.00
47726;BME280;33483;48.294;16.388;2023-05-16T01:51:28;99142.63;;;12.27;100.00
47726;BME280;33483;48.294;16.388;2023-05-16T01:53:59;99145.06;;;12.31;100.00
47726;BME280;33483;48.294;16.388;2023-05-16T01:56:29;99142.88;;;12.37;100.00
47726;BME280;33483;48.294;16.388;2023-05-16T01:58:58;99139.56;;;12.38;100.00
47726;BME280;33483;48.294;16.388;2023-05-16T02:01:25;99134.75;;;12.39;100.00
47726;BME280;33483;48.294;16.388;2023-05-16T02:03:57;99142.88;;;12.37;100.00
47726;BME280;33483;48.294;16.388;2023-05-16T02:06:26;99126.97;;;12.37;100.00
47726;BME280;33483;48.294;16.388;2023-05-16T02:08:55;99126.59;;;12.41;100.00
47726;BME280;33483;48.294;16.388;2023-05-16T02:11:22;99130.84;;;12.42;100.00
47726;BME280;33483;48.294;16.388;2023-05-16T02:13:50;99133.28;;;12.45;100.00
47726;BME280;33483;48.294;16.388;2023-05-16T02:16:17;99141.84;;;12.55;100.00
47726;BME280;33483;48.294;16.388;2023-05-16T02:18:44;99139.78;;;12.56;100.00
47726;BME280;33483;48.294;16.388;2023-05-16T02:21:12;99142.94;;;12.52;100.00
47726;BME280;33483;48.294;16.388;2023-05-16T02:23:39;99140.72;;;12.51;100.00
47726;BME280;33483;48.294;16.388;2023-05-16T02:26:09;99138.28;;;12.47;100.00
47726;BME280;33483;48.294;16.388;2023-05-16T02:28:38;99128.28;;;12.44;100.00
47726;BME280;33483;48.294;16.388;2023-05-16T02:31:05;99126.97;;;12.45;100.00
47726;BME280;33483;48.294;16.388;2023-05-16T02:33:32;99125.28;;;12.42;100.00
47726;BME280;33483;48.294;16.388;2023-05-16T02:36:01;99137.00;;;12.48;100.00
47726;BME280;33483;48.294;16.388;2023-05-16T02:38:27;99128.47;;;12.46;100.00
47726;BME280;33483;48.294;16.388;2023-05-16T02:40:55;99128.47;;;12.46;100.00
47726;BME280;33483;48.294;16.388;2023-05-16T02:43:21;99135.13;;;12.43;100.00
47726;BME280;33483;48.294;16.388;2023-05-16T02:45:49;99135.13;;;12.43;100.00
47726;BME280;33483;48.294;16.388;2023-05-16T02:48:16;99136.63;;;12.44;100.00
47726;BME280;33483;48.294;16.388;2023-05-16T02:50:43;99134.59;;;12.44;100.00
47726;BME280;33483;48.294;16.388;2023-05-16T02:53:10;99125.34;;;12.50;100.00
47726;BME280;33483;48.294;16.388;2023-05-16T02:55:37;99126.25;;;12.52;100.00
47726;BME280;33483;48.294;16.388;2023-05-16T02:58:04;99113.31;;;12.55;100.00
47726;BME280;33483;48.294;16.388;2023-05-16T03:00:34;99113.31;;;12.55;100.00
47726;BME280;33483;48.294;16.388;2023-05-16T03:03:03;99114.06;;;12.55;100.00
47726;BME280;33483;48.294;16.388;2023-05-16T03:05:31;99099.75;;;12.51;100.00
47726;BME280;33483;48.294;16.388;2023-05-16T03:07:58;99110.31;;;12.53;100.00
47726;BME280;33483;48.294;16.388;2023-05-16T03:10:28;99104.00;;;12.52;100.00
47726;BME280;33483;48.294;16.388;2023-05-16T03:12:55;99101.03;;;12.50;100.00
47726;BME280;33483;48.294;16.388;2023-05-16T03:15:22;99098.63;;;12.46;100.00
47726;BME280;33483;48.294;16.388;2023-05-16T03:17:50;99084.72;;;12.46;100.00
47726;BME280;33483;48.294;16.388;2023-05-16T03:20:17;99086.78;;;12.46;100.00
47726;BME280;33483;48.294;16.388;2023-05-16T03:22:44;99081.59;;;12.42;100.00
47726;BME280;33483;48.294;16.388;2023-05-16T03:25:12;99079.53;;;12.43;100.00
47726;BME280;33483;48.294;16.388;2023-05-16T03:27:39;99073.25;;;12.42;100.00
47726;BME280;33483;48.294;16.388;2023-05-16T03:30:07;99076.59;;;12.41;100.00
47726;BME280;33483;48.294;16.388;2023-05-16T03:32:34;99089.16;;;12.42;100.00
47726;BME280;33483;48.294;16.388;2023-05-16T03:35:02;99086.94;;;12.40;100.00
47726;BME280;33483;48.294;16.388;2023-05-16T03:37:29;99076.94;;;12.37;100.00
47726;BME280;33483;48.294;16.388;2023-05-16T03:39:59;99073.97;;;12.35;100.00
47726;BME280;33483;48.294;16.388;2023-05-16T03:42:26;99075.59;;;12.31;100.00
47726;BME280;33483;48.294;16.388;2023-05-16T03:44:54;99080.28;;;12.36;100.00
47726;BME280;33483;48.294;16.388;2023-05-16T03:47:20;99098.63;;;12.39;100.00
47726;BME280;33483;48.294;16.388;2023-05-16T03:49:48;99100.09;;;12.40;100.00
47726;BME280;33483;48.294;16.388;2023-05-16T03:52:17;99103.63;;;12.40;100.00
47726;BME280;33483;48.294;16.388;2023-05-16T03:54:44;99105.44;;;12.38;100.00
47726;BME280;33483;48.294;16.388;2023-05-16T03:57:12;99108.06;;;12.43;100.00
47726;BME280;33483;48.294;16.388;2023-05-16T03:59:41;99105.13;;;12.49;100.00
47726;BME280;33483;48.294;16.388;2023-05-16T04:02:08;99109.56;;;12.52;100.00
47726;BME280;33483;48.294;16.388;2023-05-16T04:04:36;99121.09;;;12.56;100.00
47726;BME280;33483;48.294;16.388;2023-05-16T04:07:03;99115.38;;;12.62;100.00
47726;BME280;33483;48.294;16.388;2023-05-16T04:09:30;99105.16;;;12.64;100.00
47726;BME280;33483;48.294;16.388;2023-05-16T04:11:59;99109.25;;;12.63;100.00
47726;BME280;33483;48.294;16.388;2023-05-16T04:14:31;99103.69;;;12.63;100.00
47726;BME280;33483;48.294;16.388;2023-05-16T04:16:59;99096.81;;;12.64;100.00
47726;BME280;33483;48.294;16.388;2023-05-16T04:19:27;99095.72;;;12.67;100.00
47726;BME280;33483;48.294;16.388;2023-05-16T04:21:56;99089.06;;;12.70;100.00
47726;BME280;33483;48.294;16.388;2023-05-16T04:24:23;99078.31;;;12.74;100.00
47726;BME280;33483;48.294;16.388;2023-05-16T04:26:54;99089.97;;;12.73;100.00
47726;BME280;33483;48.294;16.388;2023-05-16T04:29:21;99094.44;;;12.76;100.00
47726;BME280;33483;48.294;16.388;2023-05-16T04:31:49;99092.03;;;12.80;100.00
47726;BME280;33483;48.294;16.388;2023-05-16T04:34:16;99094.44;;;12.83;100.00
47726;BME280;33483;48.294;16.388;2023-05-16T04:36:43;99103.19;;;12.87;100.00
47726;BME280;33483;48.294;16.388;2023-05-16T04:39:11;99110.59;;;12.92;100.00
47726;BME280;33483;48.294;16.388;2023-05-16T04:41:38;99110.22;;;12.96;100.00
47726;BME280;33483;48.294;16.388;2023-05-16T04:44:08;99104.84;;;12.90;100.00
47726;BME280;33483;48.294;16.388;2023-05-16T04:46:36;99100.78;;;12.91;100.00
47726;BME280;33483;48.294;16.388;2023-05-16T04:49:04;99110.41;;;12.90;100.00
47726;BME280;33483;48.294;16.388;2023-05-16T04:51:31;99130.06;;;12.92;100.00
47726;BME280;33483;48.294;16.388;2023-05-16T04:54:00;99135.44;;;12.90;100.00
47726;BME280;33483;48.294;16.388;2023-05-16T04:56:27;99147.88;;;12.89;100.00
47726;BME280;33483;48.294;16.388;2023-05-16T04:58:55;99159.38;;;12.93;100.00
47726;BME280;33483;48.294;16.388;2023-05-16T05:01:22;99159.94;;;12.99;100.00
47726;BME280;33483;48.294;16.388;2023-05-16T05:03:51;99162.53;;;12.97;100.00
47726;BME280;33483;48.294;16.388;2023-05-16T05:06:18;99153.47;;;13.04;100.00
47726;BME280;33483;48.294;16.388;2023-05-16T05:08:46;99151.47;;;13.12;100.00
47726;BME280;33483;48.294;16.388;2023-05-16T05:11:13;99148.31;;;13.23;100.00
47726;BME280;33483;48.294;16.388;2023-05-16T05:13:40;99147.03;;;13.24;100.00
47726;BME280;33483;48.294;16.388;2023-05-16T05:16:07;99151.88;;;13.31;100.00
47726;BME280;33483;48.294;16.388;2023-05-16T05:18:34;99145.75;;;13.40;100.00
47726;BME280;33483;48.294;16.388;2023-05-16T05:21:02;99133.88;;;13.47;100.00
47726;BME280;33483;48.294;16.388;2023-05-16T05:23:31;99126.06;;;13.53;100.00
47726;BME280;33483;48.294;16.388;2023-05-16T05:26:00;99122.34;;;13.58;100.00
47726;BME280;33483;48.294;16.388;2023-05-16T05:28:30;99130.50;;;13.64;100.00
47726;BME280;33483;48.294;16.388;2023-05-16T05:30:57;99152.03;;;13.79;100.00
47726;BME280;33483;48.294;16.388;2023-05-16T05:33:27;99160.56;;;13.81;100.00
47726;BME280;33483;48.294;16.388;2023-05-16T05:35:57;99171.50;;;13.94;100.00
47726;BME280;33483;48.294;16.388;2023-05-16T05:38:24;99184.63;;;14.16;100.00
47726;BME280;33483;48.294;16.388;2023-05-16T05:40:51;99179.78;;;14.39;100.00
47726;BME280;33483;48.294;16.388;2023-05-16T05:43:19;99181.75;;;14.61;100.00
47726;BME280;33483;48.294;16.388;2023-05-16T05:45:45;99181.16;;;14.70;100.00
47726;BME280;33483;48.294;16.388;2023-05-16T05:48:13;99178.72;;;14.74;100.00
47726;BME280;33483;48.294;16.388;2023-05-16T05:50:40;99180.03;;;14.73;100.00
47726;BME280;33483;48.294;16.388;2023-05-16T05:53:07;99180.03;;;14.73;100.00
47726;BME280;33483;48.294;16.388;2023-05-16T05:55:34;99176.00;;;14.59;100.00
47726;BME280;33483;48.294;16.388;2023-05-16T05:58:01;99184.38;;;14.51;100.00
47726;BME280;33483;48.294;16.388;2023-05-16T06:00:32;99181.22;;;14.55;100.00
47726;BME280;33483;48.294;16.388;2023-05-16T06:02:59;99174.13;;;14.61;100.00
47726;BME280;33483;48.294;16.388;2023-05-16T06:05:29;99180.97;;;14.68;100.00
47726;BME280;33483;48.294;16.388;2023-05-16T06:07:57;99172.97;;;14.72;100.00
47726;BME280;33483;48.294;16.388;2023-05-16T06:10:26;99172.97;;;14.72;100.00
47726;BME280;33483;48.294;16.388;2023-05-16T06:12:53;99167.13;;;14.85;100.00
47726;BME280;33483;48.294;16.388;2023-05-16T06:15:20;99163.78;;;14.87;100.00
47726;BME280;33483;48.294;16.388;2023-05-16T06:17:48;99162.06;;;14.91;100.00
47726;BME280;33483;48.294;16.388;2023-05-16T06:20:15;99162.09;;;14.84;100.00
47726;BME280;33483;48.294;16.388;2023-05-16T06:22:47;99166.91;;;14.91;100.00
47726;BME280;33483;48.294;16.388;2023-05-16T06:25:14;99165.78;;;14.94;100.00
47726;BME280;33483;48.294;16.388;2023-05-16T06:27:41;99158.00;;;14.92;100.00
47726;BME280;33483;48.294;16.388;2023-05-16T06:30:08;99161.28;;;14.98;100.00
47726;BME280;33483;48.294;16.388;2023-05-16T06:32:36;99156.88;;;14.88;100.00
47726;BME280;33483;48.294;16.388;2023-05-16T06:35:03;99151.84;;;14.94;100.00
47726;BME280;33483;48.294;16.388;2023-05-16T06:37:30;99158.59;;;14.83;100.00
47726;BME280;33483;48.294;16.388;2023-05-16T06:40:00;99159.56;;;14.78;100.00
47726;BME280;33483;48.294;16.388;2023-05-16T06:42:28;99157.53;;;14.71;100.00
47726;BME280;33483;48.294;16.388;2023-05-16T06:44:55;99155.53;;;14.64;100.00
47726;BME280;33483;48.294;16.388;2023-05-16T06:47:22;99166.31;;;14.60;100.00
47726;BME280;33483;48.294;16.388;2023-05-16T06:49:49;99168.50;;;14.77;100.00
47726;BME280;33483;48.294;16.388;2023-05-16T06:52:17;99169.38;;;14.79;100.00
47726;BME280;33483;48.294;16.388;2023-05-16T06:54:44;99176.63;;;14.82;100.00
47726;BME280;33483;48.294;16.388;2023-05-16T06:57:11;99179.78;;;14.86;100.00
47726;BME280;33483;48.294;16.388;2023-05-16T06:59:41;99175.13;;;14.89;100.00
47726;BME280;33483;48.294;16.388;2023-05-16T07:02:09;99166.50;;;14.94;100.00
47726;BME280;33483;48.294;16.388;2023-05-16T07:04:36;99163.31;;;14.98;100.00
47726;BME280;33483;48.294;16.388;2023-05-16T07:07:04;99161.88;;;15.21;100.00
47726;BME280;33483;48.294;16.388;2023-05-16T07:09:33;99159.91;;;15.39;100.00
47726;BME280;33483;48.294;16.388;2023-05-16T07:12:01;99155.41;;;15.43;100.00
47726;BME280;33483;48.294;16.388;2023-05-16T07:14:28;99157.88;;;15.39;100.00
47726;BME280;33483;48.294;16.388;2023-05-16T07:16:57;99164.38;;;15.34;100.00
47726;BME280;33483;48.294;16.388;2023-05-16T07:19:29;99159.91;;;15.39;100.00
47726;BME280;33483;48.294;16.388;2023-05-16T07:21:59;99165.53;;;15.31;100.00
47726;BME280;33483;48.294;16.388;2023-05-16T07:24:26;99181.25;;;15.19;100.00
47726;BME280;33483;48.294;16.388;2023-05-16T07:26:53;99176.06;;;15.16;100.00
47726;BME280;33483;48.294;16.388;2023-05-16T07:29:20;99185.41;;;15.11;100.00
47726;BME280;33483;48.294;16.388;2023-05-16T07:31:47;99183.50;;;14.89;100.00
47726;BME280;33483;48.294;16.388;2023-05-16T07:34:17;99188.16;;;14.86;100.00
47726;BME280;33483;48.294;16.388;2023-05-16T07:36:44;99200.63;;;14.85;100.00
47726;BME280;33483;48.294;16.388;2023-05-16T07:39:11;99191.91;;;14.74;100.00
47726;BME280;33483;48.294;16.388;2023-05-16T07:41:38;99190.44;;;14.73;100.00
47726;BME280;33483;48.294;16.388;2023-05-16T07:44:05;99187.16;;;14.59;100.00
47726;BME280;33483;48.294;16.388;2023-05-16T07:46:32;99183.69;;;14.43;100.00
47726;BME280;33483;48.294;16.388;2023-05-16T07:49:00;99185.56;;;14.33;100.00
47726;BME280;33483;48.294;16.388;2023-05-16T07:51:27;99194.88;;;14.21;100.00
47726;BME280;33483;48.294;16.388;2023-05-16T07:53:54;99207.69;;;14.09;100.00
47726;BME280;33483;48.294;16.388;2023-05-16T07:56:21;99215.31;;;14.08;100.00
47726;BME280;33483;48.294;16.388;2023-05-16T07:58:49;99214.75;;;14.10;100.00
47726;BME280;33483;48.294;16.388;2023-05-16T08:01:16;99218.50;;;14.05;100.00
47726;BME280;33483;48.294;16.388;2023-05-16T08:03:43;99221.09;;;14.03;100.00
47726;BME280;33483;48.294;16.388;2023-05-16T08:06:11;99218.31;;;14.03;100.00
47726;BME280;33483;48.294;16.388;2023-05-16T08:08:38;99220.72;;;13.99;100.00
47726;BME280;33483;48.294;16.388;2023-05-16T08:11:05;99230.38;;;13.98;100.00
47726;BME280;33483;48.294;16.388;2023-05-16T08:13:32;99222.94;;;14.00;100.00
47726;BME280;33483;48.294;16.388;2023-05-16T08:15:59;99227.97;;;13.94;100.00
47726;BME280;33483;48.294;16.388;2023-05-16T08:18:27;99234.47;;;13.89;100.00
47726;BME280;33483;48.294;16.388;2023-05-16T08:20:54;99239.84;;;13.87;100.00
47726;BME280;33483;48.294;16.388;2023-05-16T08:23:21;99254.16;;;13.84;100.00
47726;BME280;33483;48.294;16.388;2023-05-16T08:25:48;99261.00;;;13.83;100.00
47726;BME280;33483;48.294;16.388;2023-05-16T08:28:15;99270.09;;;13.76;100.00
47726;BME280;33483;48.294;16.388;2023-05-16T08:30:43;99273.25;;;13.72;100.00
47726;BME280;33483;48.294;16.388;2023-05-16T08:33:13;99273.47;;;13.67;100.00
47726;BME280;33483;48.294;16.388;2023-05-16T08:35:43;99269.75;;;13.64;100.00
47726;BME280;33483;48.294;16.388;2023-05-16T08:38:10;99273.81;;;13.71;100.00
47726;BME280;33483;48.294;16.388;2023-05-16T08:40:38;99266.03;;;13.69;100.00
47726;BME280;33483;48.294;16.388;2023-05-16T08:43:05;99266.41;;;13.73;100.00
47726;BME280;33483;48.294;16.388;2023-05-16T08:45:33;99269.00;;;13.71;100.00
47726;BME280;33483;48.294;16.388;2023-05-16T08:48:00;99264.91;;;13.72;100.00
47726;BME280;33483;48.294;16.388;2023-05-16T08:50:29;99263.06;;;13.67;100.00
47726;BME280;33483;48.294;16.388;2023-05-16T08:52:59;99265.28;;;13.69;100.00
47726;BME280;33483;48.294;16.388;2023-05-16T08:55:32;99265.09;;;13.74;100.00
47726;BME280;33483;48.294;16.388;2023-05-16T08:58:00;99266.03;;;13.77;100.00
47726;BME280;33483;48.294;16.388;2023-05-16T09:00:30;99255.28;;;13.73;100.00
47726;BME280;33483;48.294;16.388;2023-05-16T09:02:57;99251.91;;;13.75;100.00
47726;BME280;33483;48.294;16.388;2023-05-16T09:05:25;99244.13;;;13.73;100.00
47726;BME280;33483;48.294;16.388;2023-05-16T09:07:57;99243.56;;;13.75;100.00
47726;BME280;33483;48.294;16.388;2023-05-16T09:10:24;99228.34;;;13.61;100.00
47726;BME280;33483;48.294;16.388;2023-05-16T09:12:51;99221.28;;;13.67;100.00
47726;BME280;33483;48.294;16.388;2023-05-16T09:15:18;99218.50;;;13.67;100.00
47726;BME280;33483;48.294;16.388;2023-05-16T09:17:47;99211.44;;;13.66;100.00
47726;BME280;33483;48.294;16.388;2023-05-16T09:20:16;99210.13;;;13.67;100.00
47726;BME280;33483;48.294;16.388;2023-05-16T09:22:56;99208.66;;;13.58;100.00
47726;BME280;33483;48.294;16.388;2023-05-16T09:25:25;99197.16;;;13.54;100.00
47726;BME280;33483;48.294;16.388;2023-05-16T09:27:55;99191.78;;;13.49;100.00
47726;BME280;33483;48.294;16.388;2023-05-16T09:30:27;99184.34;;;13.44;100.00
47726;BME280;33483;48.294;16.388;2023-05-16T09:32:55;99187.50;;;13.40;100.00
47726;BME280;33483;48.294;16.388;2023-05-16T09:35:22;99181.00;;;13.45;100.00
47726;BME280;33483;48.294;16.388;2023-05-16T09:38:13;99175.25;;;13.43;100.00
47726;BME280;33483;48.294;16.388;2023-05-16T09:40:41;99179.88;;;13.41;100.00
47726;BME280;33483;48.294;16.388;2023-05-16T09:43:11;99181.38;;;13.42;100.00
47726;BME280;33483;48.294;16.388;2023-05-16T09:45:43;99165.03;;;13.38;100.00
47726;BME280;33483;48.294;16.388;2023-05-16T09:48:11;99157.06;;;13.35;100.00
47726;BME280;33483;48.294;16.388;2023-05-16T09:50:45;99153.16;;;13.30;100.00
47726;BME280;33483;48.294;16.388;2023-05-16T09:53:15;99156.69;;;13.31;100.00
47726;BME280;33483;48.294;16.388;2023-05-16T09:55:42;99159.09;;;13.34;100.00
47726;BME280;33483;48.294;16.388;2023-05-16T09:58:09;99160.94;;;13.32;100.00
47726;BME280;33483;48.294;16.388;2023-05-16T10:00:37;99173.94;;;13.29;100.00
47726;BME280;33483;48.294;16.388;2023-05-16T10:03:05;99175.41;;;13.30;100.00
47726;BME280;33483;48.294;16.388;2023-05-16T10:05:33;99178.75;;;13.29;100.00
47726;BME280;33483;48.294;16.388;2023-05-16T10:08:02;99182.81;;;13.20;100.00
47726;BME280;33483;48.294;16.388;2023-05-16T10:10:35;99186.91;;;13.19;100.00
47726;BME280;33483;48.294;16.388;2023-05-16T10:13:04;99183.19;;;13.17;100.00
47726;BME280;33483;48.294;16.388;2023-05-16T10:15:34;99193.41;;;13.14;100.00
47726;BME280;33483;48.294;16.388;2023-05-16T10:18:02;99196.53;;;13.03;100.00
47726;BME280;33483;48.294;16.388;2023-05-16T10:20:31;99204.63;;;12.94;100.00
47726;BME280;33483;48.294;16.388;2023-05-16T10:22:58;99202.38;;;12.92;100.00
47726;BME280;33483;48.294;16.388;2023-05-16T10:27:55;99218.72;;;12.96;100.00
47726;BME280;33483;48.294;16.388;2023-05-16T10:30:22;99231.34;;;12.97;100.00
47726;BME280;33483;48.294;16.388;2023-05-16T10:32:49;99229.84;;;12.96;100.00
47726;BME280;33483;48.294;16.388;2023-05-16T10:35:18;99220.44;;;13.06;100.00
47726;BME280;33483;48.294;16.388;2023-05-16T10:37:48;99212.84;;;13.07;100.00
47726;BME280;33483;48.294;16.388;2023-05-16T10:40:16;99223.81;;;13.12;100.00
47726;BME280;33483;48.294;16.388;2023-05-16T10:42:54;99229.94;;;13.11;100.00
47726;BME280;33483;48.294;16.388;2023-05-16T10:45:21;99228.06;;;13.13;100.00
47726;BME280;33483;48.294;16.388;2023-05-16T10:48:03;99227.53;;;13.22;100.00
47726;BME280;33483;48.294;16.388;2023-05-16T10:53:21;99230.16;;;13.28;100.00
47726;BME280;33483;48.294;16.388;2023-05-16T11:06:23;99217.91;;;13.46;100.00
47726;BME280;33483;48.294;16.388;2023-05-16T11:11:37;99219.06;;;13.50;100.00
47726;BME280;33483;48.294;16.388;2023-05-16T11:14:09;99227.59;;;13.52;100.00
47726;BME280;33483;48.294;16.388;2023-05-16T11:16:46;99229.44;;;13.50;100.00
47726;BME280;33483;48.294;16.388;2023-05-16T11:19:17;99227.41;;;13.50;100.00
47726;BME280;33483;48.294;16.388;2023-05-16T11:27:19;99216.63;;;13.47;100.00
47726;BME280;33483;48.294;16.388;2023-05-16T11:29:47;99216.81;;;13.56;100.00
47726;BME280;33483;48.294;16.388;2023-05-16T11:32:17;99214.03;;;13.56;100.00
47726;BME280;33483;48.294;16.388;2023-05-16T11:34:44;99200.31;;;13.66;100.00
47726;BME280;33483;48.294;16.388;2023-05-16T11:37:13;99201.81;;;13.60;100.00
47726;BME280;33483;48.294;16.388;2023-05-16T11:39:43;99199.38;;;13.56;100.00
47726;BME280;33483;48.294;16.388;2023-05-16T11:42:10;99192.13;;;13.61;100.00
47726;BME280;33483;48.294;16.388;2023-05-16T11:44:40;99185.44;;;13.64;100.00
47726;BME280;33483;48.294;16.388;2023-05-16T11:47:09;99190.81;;;13.62;100.00
47726;BME280;33483;48.294;16.388;2023-05-16T11:49:36;99189.16;;;13.58;100.00
47726;BME280;33483;48.294;16.388;2023-05-16T11:52:04;99195.66;;;13.53;100.00
47726;BME280;33483;48.294;16.388;2023-05-16T11:54:31;99190.09;;;13.53;100.00
47726;BME280;33483;48.294;16.388;2023-05-16T11:57:00;99177.66;;;13.54;100.00
47726;BME280;33483;48.294;16.388;2023-05-16T11:59:27;99181.34;;;13.49;100.00
47726;BME280;33483;48.294;16.388;2023-05-16T12:01:55;99172.84;;;13.47;100.00
47726;BME280;33483;48.294;16.388;2023-05-16T12:04:22;99170.41;;;13.36;100.00
47726;BME280;33483;48.294;16.388;2023-05-16T12:06:56;99179.31;;;13.35;100.00
47726;BME280;33483;48.294;16.388;2023-05-16T12:09:24;99178.22;;;13.38;100.00
47726;BME280;33483;48.294;16.388;2023-05-16T12:11:51;99172.44;;;13.36;100.00
47726;BME280;33483;48.294;16.388;2023-05-16T12:14:18;99172.44;;;13.36;100.00
47726;BME280;33483;48.294;16.388;2023-05-16T12:16:46;99162.44;;;13.40;100.00
47726;BME280;33483;48.294;16.388;2023-05-16T12:19:15;99158.38;;;13.49;100.00
47726;BME280;33483;48.294;16.388;2023-05-16T12:21:42;99156.69;;;13.53;100.00
47726;BME280;33483;48.294;16.388;2023-05-16T12:24:10;99159.09;;;13.57;100.00
47726;BME280;33483;48.294;16.388;2023-05-16T12:26:39;99156.31;;;13.65;100.00
47726;BME280;33483;48.294;16.388;2023-05-16T12:29:07;99156.31;;;13.65;100.00
47726;BME280;33483;48.294;16.388;2023-05-16T12:31:35;99140.16;;;13.71;100.00
47726;BME280;33483;48.294;16.388;2023-05-16T12:34:02;99142.75;;;13.69;100.00
47726;BME280;33483;48.294;16.388;2023-05-16T12:36:30;99147.56;;;13.76;100.00
47726;BME280;33483;48.294;16.388;2023-05-16T12:39:01;99134.75;;;13.88;100.00
47726;BME280;33483;48.294;16.388;2023-05-16T12:41:30;99129.19;;;13.80;100.00
47726;BME280;33483;48.294;16.388;2023-05-16T12:46:56;99122.66;;;13.93;100.00
47726;BME280;33483;48.294;16.388;2023-05-16T12:49:24;99124.31;;;13.96;100.00
47726;BME280;33483;48.294;16.388;2023-05-16T12:51:52;99114.66;;;13.97;100.00
47726;BME280;33483;48.294;16.388;2023-05-16T12:54:19;99109.81;;;14.05;100.00
47726;BME280;33483;48.294;16.388;2023-05-16T12:56:49;99103.13;;;14.00;100.00
47726;BME280;33483;48.294;16.388;2023-05-16T12:59:17;99096.66;;;13.83;100.00
47726;BME280;33483;48.294;16.388;2023-05-16T13:01:46;99095.19;;;13.82;100.00
47726;BME280;33483;48.294;16.388;2023-05-16T13:04:13;99095.56;;;13.78;100.00
47726;BME280;33483;48.294;16.388;2023-05-16T13:06:45;99103.75;;;13.69;100.00
47726;BME280;33483;48.294;16.388;2023-05-16T13:09:20;99107.69;;;13.58;100.00
47726;BME280;33483;48.294;16.388;2023-05-16T13:11:48;99106.03;;;13.47;100.00
47726;BME280;33483;48.294;16.388;2023-05-16T13:14:15;99103.78;;;13.53;100.00
47726;BME280;33483;48.294;16.388;2023-05-16T13:16:43;99097.69;;;13.47;100.00
47726;BME280;33483;48.294;16.388;2023-05-16T13:19:10;99090.06;;;13.40;100.00
47726;BME280;33483;48.294;16.388;2023-05-16T13:21:38;99086.16;;;13.36;100.00
47726;BME280;33483;48.294;16.388;2023-05-16T13:24:05;99082.09;;;13.37;100.00